Connelsville, Missouri
Current Conditions -  °F | °C
As of 2:04 PM on Thursday 18 Dec 2014 (Local Time) from KIRK Reporting Station
Haze Haze  
Wind Chill: 30°   Ceiling: 1100
Heat Index: 30°   Visibility: 6mi
Dew Point: 26°   Wind: 3mph
Humidity: 85%   Direction: 90°E
Pressure: 30.22"   Gusts: NA
Location:  40.2969°N, 92.7524°W
Report Text: KIRK 182004Z AUTO 09003KT 6SM BR BKN011 OVC032 M01/M03 A3022 RMK AO2 T10111033
Loading
Personal Weather Stations






























Interactive Weather Map New forecast layout! Learn more

10-Day Weather Forecast

Advertisements
Track Severe Weather on mobile